Time;durP1;ratioP1;P1;durP2;ratioP2;P2;SDS_P1;SDS_P2;PMS_P1;PMS_P2;Temp;Humidity;BMP_temperature;BMP_pressure;BME280_temperature;BME280_humidity;BME280_pressure;Samples;Min_cycle;Max_cycle;Signal;HPM_P1;HPM_P2
2023/03/03 00:00:18;;;;;;;3.57;3.27;;;6.00;99.90;;;5.80;70.24;95004.72;5041251;28;20467;-56
2023/03/03 00:02:46;;;;;;;4.17;2.93;;;6.00;99.90;;;5.84;70.71;95016.63;5040015;28;21054;-56
2023/03/03 00:05:17;;;;;;;5.37;3.53;;;6.10;99.90;;;5.86;70.04;95011.28;5037952;28;20492;-56
2023/03/03 00:07:46;;;;;;;3.23;3.03;;;6.10;99.90;;;5.87;70.43;95013.81;5041234;28;20518;-57
2023/03/03 00:10:13;;;;;;;3.20;3.00;;;6.10;99.90;;;5.88;69.65;95009.41;5039015;28;20590;-57
2023/03/03 00:12:48;;;;;;;4.23;3.77;;;6.10;99.90;;;5.87;69.54;95005.97;5038401;28;20468;-56
2023/03/03 00:15:17;;;;;;;4.13;3.70;;;6.10;99.90;;;5.85;69.65;95001.78;5037187;28;20481;-55
2023/03/03 00:17:44;;;;;;;3.87;3.50;;;6.10;99.90;;;5.85;70.00;95002.63;5040576;28;20476;-57
2023/03/03 00:20:35;;;;;;;3.50;3.20;;;6.10;99.90;;;5.85;69.99;94994.78;5039657;28;20483;-57
2023/03/03 00:23:19;;;;;;;4.33;3.93;;;6.10;99.90;;;5.86;69.64;94995.63;5032143;28;20479;-57
2023/03/03 00:25:47;;;;;;;3.87;3.57;;;6.10;99.90;;;5.87;69.74;94997.28;5033986;28;20480;-56
2023/03/03 00:28:22;;;;;;;4.23;3.93;;;6.10;99.90;;;5.86;70.10;94998.25;5036588;28;20459;-57
2023/03/03 00:30:50;;;;;;;4.70;3.90;;;6.10;99.90;;;5.83;69.89;94995.84;5033411;28;20455;-57
2023/03/03 00:33:27;;;;;;;3.93;3.73;;;6.10;99.90;;;5.78;69.90;94993.56;5034703;28;20517;-56
2023/03/03 00:35:56;;;;;;;4.40;4.00;;;6.00;99.90;;;5.77;70.06;94994.50;5037735;28;20459;-55
2023/03/03 00:38:23;;;;;;;4.27;3.87;;;6.00;99.90;;;5.77;69.78;94986.66;5027960;28;20543;-57
2023/03/03 00:40:51;;;;;;;4.20;3.80;;;6.00;99.90;;;5.75;70.16;94986.78;5037592;28;20513;-57
2023/03/03 00:43:21;;;;;;;6.87;4.17;;;6.00;99.90;;;5.74;70.16;94977.25;5035258;28;20454;-58
2023/03/03 00:45:48;;;;;;;3.93;3.70;;;6.00;99.90;;;5.74;70.41;94976.44;5031185;28;20492;-56
2023/03/03 00:48:24;;;;;;;3.83;3.57;;;6.00;99.90;;;5.71;70.11;94972.25;5032128;28;20548;-57
2023/03/03 00:50:53;;;;;;;3.20;3.00;;;6.00;99.90;;;5.76;70.59;94974.53;5037340;28;20468;-57
2023/03/03 00:53:22;;;;;;;3.97;3.67;;;6.00;99.90;;;5.72;70.69;94968.72;5031494;28;20453;-57
2023/03/03 00:55:50;;;;;;;4.60;4.20;;;6.00;99.90;;;5.71;70.65;94961.81;5036049;28;21054;-56
2023/03/03 00:58:20;;;;;;;4.87;4.37;;;6.00;99.90;;;5.70;70.69;94965.41;5038482;28;20452;-56
2023/03/03 01:00:48;;;;;;;4.70;3.97;;;6.00;99.90;;;5.71;70.55;94955.78;5036785;28;20463;-58
2023/03/03 01:03:18;;;;;;;4.47;3.97;;;6.00;99.90;;;5.70;70.68;94948.88;5035311;28;20448;-57
2023/03/03 01:05:45;;;;;;;6.20;3.90;;;5.90;99.90;;;5.69;70.82;94942.03;5033473;28;20973;-57
2023/03/03 01:08:12;;;;;;;6.27;4.23;;;5.90;99.90;;;5.69;70.70;94953.28;5035774;28;20466;-56
2023/03/03 01:10:42;;;;;;;3.83;3.43;;;6.00;99.90;;;5.71;70.84;94950.56;5038371;28;20537;-57
2023/03/03 01:13:10;;;;;;;4.43;4.13;;;5.90;99.90;;;5.69;70.65;94937.63;5037277;28;20481;-56
2023/03/03 01:15:38;;;;;;;4.33;3.93;;;6.00;99.90;;;5.75;71.16;94938.97;5036183;28;20464;-55
2023/03/03 01:18:05;;;;;;;3.83;3.50;;;6.00;99.90;;;5.77;70.84;94946.69;5032476;28;20554;-55
2023/03/03 01:20:32;;;;;;;3.93;3.60;;;6.00;99.90;;;5.80;71.09;94949.09;5035226;28;20461;-57
2023/03/03 01:23:00;;;;;;;4.63;4.20;;;6.00;99.90;;;5.82;70.79;94945.41;5035921;28;20582;-57
2023/03/03 01:25:27;;;;;;;7.63;3.57;;;6.00;99.90;;;5.83;70.85;94943.66;5040807;28;20488;-59
2023/03/03 01:27:56;;;;;;;3.97;3.67;;;6.10;99.90;;;5.83;70.57;94941.03;5033485;28;20472;-57
2023/03/03 01:30:24;;;;;;;6.80;4.70;;;6.10;99.90;;;5.81;70.58;94940.28;5035647;28;20472;-55
2023/03/03 01:32:51;;;;;;;4.03;3.73;;;6.10;99.90;;;5.81;70.66;94941.16;5034038;28;20476;-57
2023/03/03 01:35:19;;;;;;;4.30;4.00;;;6.00;99.90;;;5.81;70.71;94951.59;5036538;28;20460;-54
2023/03/03 01:37:46;;;;;;;4.93;4.60;;;6.00;99.90;;;5.80;70.93;94944.69;5031063;28;20469;-56
2023/03/03 01:40:17;;;;;;;4.80;4.40;;;6.00;99.90;;;5.81;70.77;94941.16;5035167;28;20471;-57
2023/03/03 01:42:45;;;;;;;5.40;4.37;;;6.00;99.90;;;5.83;70.92;94946.25;5032088;28;20468;-57
2023/03/03 01:45:19;;;;;;;5.60;4.60;;;6.10;99.90;;;5.83;71.01;94939.25;5035059;28;20461;-59
2023/03/03 01:47:52;;;;;;;5.20;3.80;;;6.10;99.90;;;5.84;70.86;94942.69;5035354;28;20480;-56
2023/03/03 01:50:31;;;;;;;4.57;4.03;;;6.10;99.90;;;5.85;71.22;94941.75;5039067;28;20536;-55
2023/03/03 01:53:00;;;;;;;5.30;4.80;;;6.10;99.90;;;5.87;71.06;94945.09;5035854;28;20480;-57
2023/03/03 01:55:31;;;;;;;7.40;4.93;;;6.10;99.90;;;5.87;70.82;94932.03;5031815;28;20873;-57
2023/03/03 01:58:00;;;;;;;5.17;4.13;;;6.10;99.90;;;5.87;70.76;94934.63;5031463;28;20480;-57
2023/03/03 02:00:28;;;;;;;8.20;4.70;;;6.10;99.90;;;5.89;70.97;94935.38;5038300;28;20456;-56
2023/03/03 02:02:56;;;;;;;4.83;4.43;;;6.10;99.90;;;5.92;70.81;94929.94;5036291;28;20541;-56
2023/03/03 02:05:23;;;;;;;5.27;4.10;;;6.10;99.90;;;5.93;70.45;94931.59;5038024;28;20537;-57
2023/03/03 02:07:50;;;;;;;3.87;3.43;;;6.20;99.90;;;5.94;70.95;94930.66;5038904;28;20885;-56
2023/03/03 02:10:19;;;;;;;4.43;4.13;;;6.20;99.90;;;5.95;70.59;94934.94;5033067;28;20457;-55
2023/03/03 02:12:49;;;;;;;5.67;4.27;;;6.20;99.90;;;5.93;70.30;94928.97;5041036;28;20480;-56
2023/03/03 02:15:25;;;;;;;6.17;4.80;;;6.20;99.90;;;5.91;70.62;94928.28;5033340;28;20467;-56
2023/03/03 02:17:55;;;;;;;5.20;4.47;;;6.20;99.90;;;5.92;70.21;94932.56;5037001;28;20487;-56
2023/03/03 02:20:43;;;;;;;3.50;3.20;;;6.10;99.90;;;5.92;70.55;94928.16;5039065;28;20456;-57
2023/03/03 02:23:14;;;;;;;5.43;4.47;;;6.20;99.90;;;5.92;70.23;94932.56;5033207;28;20494;-56
2023/03/03 02:25:46;;;;;;;3.90;3.60;;;6.10;99.90;;;5.92;70.47;94927.34;5042240;28;20485;-57
2023/03/03 02:28:14;;;;;;;4.90;4.40;;;6.10;99.90;;;5.92;69.88;94933.38;5034434;28;20461;-55
2023/03/03 02:30:42;;;;;;;8.47;4.87;;;6.10;99.90;;;5.91;70.29;94931.69;5038756;28;20455;-55
2023/03/03 02:33:09;;;;;;;4.20;3.90;;;6.20;99.90;;;5.93;70.39;94928.97;5034091;28;20472;-56
2023/03/03 02:35:38;;;;;;;4.20;3.83;;;6.20;99.90;;;5.96;70.02;94925.31;5046897;28;20501;-57
2023/03/03 02:38:14;;;;;;;4.40;4.00;;;6.20;99.90;;;5.96;70.20;94928.75;5039851;28;20569;-55
2023/03/03 02:40:45;;;;;;;6.30;3.70;;;6.20;99.90;;;5.95;70.62;94921.91;5040204;28;20527;-56
2023/03/03 02:43:14;;;;;;;5.33;4.40;;;6.20;99.90;;;5.96;70.12;94928.75;5037894;28;20444;-56
2023/03/03 02:45:43;;;;;;;4.03;3.70;;;6.20;99.90;;;5.95;69.90;94921.91;5042594;28;20912;-56
2023/03/03 02:48:11;;;;;;;3.93;3.63;;;6.20;99.90;;;5.94;70.06;94930.66;5040911;28;20591;-55
2023/03/03 02:50:38;;;;;;;4.70;3.20;;;6.20;99.90;;;5.92;69.35;94927.34;5039355;28;21444;-58
2023/03/03 02:53:05;;;;;;;3.80;3.50;;;6.10;99.90;;;5.89;69.53;94928.38;5043149;28;20502;-56
2023/03/03 02:55:32;;;;;;;4.83;3.30;;;6.10;99.90;;;5.85;69.93;94926.91;5035574;28;20465;-56
2023/03/03 02:58:00;;;;;;;5.67;3.67;;;6.10;99.90;;;5.81;69.82;94928.09;5034413;28;20596;-56
2023/03/03 03:00:28;;;;;;;4.37;3.97;;;6.10;99.90;;;5.79;70.28;94919.53;5041384;28;20463;-56
2023/03/03 03:02:56;;;;;;;3.40;3.10;;;6.00;99.90;;;5.75;70.00;94924.13;5032819;28;20472;-57
2023/03/03 03:05:23;;;;;;;3.77;3.47;;;6.00;99.90;;;5.73;69.87;94917.34;5038228;28;20525;-55
2023/03/03 03:07:50;;;;;;;5.17;3.73;;;6.00;99.90;;;5.69;70.24;94921.97;5038576;28;20471;-57
2023/03/03 03:10:18;;;;;;;3.97;3.63;;;6.00;99.90;;;5.70;70.25;94912.34;5046155;28;20470;-56
2023/03/03 03:12:45;;;;;;;3.70;3.40;;;6.00;99.90;;;5.69;70.22;94911.53;5044910;28;20481;-56
2023/03/03 03:15:12;;;;;;;4.00;3.70;;;5.90;99.90;;;5.68;70.44;94909.84;5038960;28;20524;-55
2023/03/03 03:17:42;;;;;;;6.00;3.70;;;5.90;99.90;;;5.67;70.00;94913.41;5038930;28;20541;-56
2023/03/03 03:20:11;;;;;;;4.23;3.73;;;5.90;99.90;;;5.68;70.23;94917.69;5035967;28;21321;-56
2023/03/03 03:22:38;;;;;;;4.17;3.80;;;5.90;99.90;;;5.68;70.13;94909.84;5046836;28;21256;-55
2023/03/03 03:25:07;;;;;;;3.63;3.43;;;5.90;99.90;;;5.70;70.31;94910.59;5039178;28;20463;-55
2023/03/03 03:27:34;;;;;;;4.47;4.07;;;5.90;99.90;;;5.70;70.15;94910.59;5031279;28;20576;-57
2023/03/03 03:30:01;;;;;;;4.80;4.40;;;6.00;99.90;;;5.70;70.12;94908.00;5041700;28;20476;-57
2023/03/03 03:32:29;;;;;;;4.00;3.70;;;6.00;99.90;;;5.69;70.23;94908.91;5038058;28;20477;-57
2023/03/03 03:34:57;;;;;;;5.27;4.80;;;6.00;99.90;;;5.70;70.20;94909.75;5045417;28;20455;-56
2023/03/03 03:37:25;;;;;;;4.40;3.80;;;6.00;99.90;;;5.70;70.45;94908.00;5034899;28;21020;-56
2023/03/03 03:39:52;;;;;;;4.43;4.00;;;6.00;99.90;;;5.69;70.05;94901.09;5039563;28;20463;-56
2023/03/03 03:42:20;;;;;;;4.57;3.67;;;6.00;99.90;;;5.69;70.29;94902.88;5044748;28;20480;-56
2023/03/03 03:44:47;;;;;;;4.00;3.63;;;6.00;99.90;;;5.67;70.17;94895.16;5036300;28;21157;-56
2023/03/03 03:47:14;;;;;;;4.83;4.37;;;5.90;99.90;;;5.64;70.31;94897.97;5036037;28;20500;-55
2023/03/03 03:49:42;;;;;;;4.30;3.90;;;5.90;99.90;;;5.62;71.03;94894.63;5038327;28;20455;-56
2023/03/03 03:52:10;;;;;;;4.63;4.20;;;5.90;99.90;;;5.62;70.76;94897.25;5034890;28;20477;-56
2023/03/03 03:54:38;;;;;;;4.67;4.27;;;5.90;99.90;;;5.62;70.81;94899.84;5040810;28;20460;-55
2023/03/03 03:57:05;;;;;;;5.30;4.53;;;5.90;99.90;;;5.63;71.28;94895.50;5038047;28;20483;-55
2023/03/03 03:59:33;;;;;;;5.33;4.83;;;5.90;99.90;;;5.63;70.82;94893.69;5037352;28;20456;-55
2023/03/03 04:02:00;;;;;;;4.00;3.70;;;5.90;99.90;;;5.61;71.27;94893.00;5033833;28;20487;-56
2023/03/03 04:04:27;;;;;;;4.90;4.40;;;5.90;99.90;;;5.61;71.65;94892.13;5037154;28;20445;-57
2023/03/03 04:06:54;;;;;;;4.83;4.43;;;5.90;99.90;;;5.58;71.46;94898.41;5036933;28;20503;-56
2023/03/03 04:09:23;;;;;;;6.93;4.90;;;5.90;99.90;;;5.57;71.25;94892.34;5035137;28;20461;-55
2023/03/03 04:11:50;;;;;;;5.37;4.87;;;5.80;99.90;;;5.56;71.25;94884.63;5037774;28;20464;-56
2023/03/03 04:14:18;;;;;;;7.63;5.53;;;5.80;99.90;;;5.54;71.82;94887.34;5033779;28;20567;-56
2023/03/03 04:16:45;;;;;;;8.80;5.27;;;5.80;99.90;;;5.53;71.60;94893.53;5031243;28;20582;-55
2023/03/03 04:19:15;;;;;;;6.00;5.30;;;5.80;99.90;;;5.49;71.39;94883.41;5036855;28;20988;-57
2023/03/03 04:21:42;;;;;;;9.30;5.50;;;5.80;99.90;;;5.50;72.00;94892.88;5031005;28;20499;-56
2023/03/03 04:24:10;;;;;;;6.17;5.03;;;5.80;99.90;;;5.49;71.82;94893.84;5038310;28;21073;-57
2023/03/03 04:26:38;;;;;;;6.07;5.47;;;5.80;99.90;;;5.49;72.01;94888.63;5036594;28;20519;-57
2023/03/03 04:29:05;;;;;;;6.53;5.80;;;5.80;99.90;;;5.48;72.26;94893.00;5037338;28;21003;-57
2023/03/03 04:31:33;;;;;;;7.60;6.00;;;5.80;99.90;;;5.50;72.10;94892.88;5029503;28;20481;-56
2023/03/03 04:34:00;;;;;;;7.00;5.83;;;5.80;99.90;;;5.51;72.73;94886.75;5046054;28;20460;-56
2023/03/03 04:36:27;;;;;;;9.33;6.70;;;5.80;99.90;;;5.52;72.45;94888.41;5036348;28;20558;-57
2023/03/03 04:38:55;;;;;;;7.60;5.97;;;5.80;99.90;;;5.54;72.61;94883.91;5040507;28;20975;-57
2023/03/03 04:41:22;;;;;;;8.07;6.30;;;5.80;99.90;;;5.56;72.47;94884.63;5037555;28;20479;-57
2023/03/03 04:43:51;;;;;;;7.90;5.60;;;5.80;99.90;;;5.57;72.05;94887.13;5039429;28;20490;-56
2023/03/03 04:46:18;;;;;;;7.53;5.90;;;5.80;99.90;;;5.58;72.36;94887.97;5036976;28;20545;-56
2023/03/03 04:48:46;;;;;;;6.60;5.40;;;5.80;99.90;;;5.60;72.07;94885.25;5037178;28;20468;-55
2023/03/03 04:51:15;;;;;;;8.40;6.37;;;5.80;99.90;;;5.60;72.18;94891.31;5041264;28;20480;-55
2023/03/03 04:53:42;;;;;;;9.63;6.73;;;5.90;99.90;;;5.60;72.45;94887.88;5037018;28;20465;-56
2023/03/03 04:56:09;;;;;;;13.40;6.67;;;5.90;99.90;;;5.60;71.96;94891.31;5037815;28;21030;-57
2023/03/03 04:58:37;;;;;;;9.83;6.30;;;5.90;99.90;;;5.60;72.27;94893.09;5042836;28;20462;-57
2023/03/03 05:01:06;;;;;;;7.77;6.60;;;5.80;99.90;;;5.58;72.48;94898.41;5034538;28;20464;-55
2023/03/03 05:03:33;;;;;;;7.80;6.40;;;5.80;99.90;;;5.57;72.59;94894.13;5038482;28;21348;-56
2023/03/03 05:06:00;;;;;;;9.97;6.70;;;5.80;99.90;;;5.58;72.31;94890.59;5039655;28;20456;-56
2023/03/03 05:08:28;;;;;;;9.40;7.23;;;5.80;99.90;;;5.60;72.80;94890.50;5041189;28;20459;-57
2023/03/03 05:10:55;;;;;;;11.00;7.43;;;5.80;99.90;;;5.62;72.40;94899.03;5039070;28;20459;-56
2023/03/03 05:13:22;;;;;;;8.93;6.63;;;5.90;99.90;;;5.63;72.73;94895.50;5042147;28;20452;-57
2023/03/03 05:15:51;;;;;;;9.50;7.37;;;5.90;99.90;;;5.60;72.63;94891.31;5039213;28;20457;-57
2023/03/03 05:18:20;;;;;;;8.90;6.43;;;5.90;99.90;;;5.63;72.37;94898.91;5034298;28;20499;-55
2023/03/03 05:20:47;;;;;;;8.53;7.50;;;5.90;99.90;;;5.63;72.09;94900.69;5031430;28;20463;-56
2023/03/03 05:23:14;;;;;;;12.13;7.00;;;5.90;99.90;;;5.62;72.74;94904.25;5036710;28;20460;-58
2023/03/03 05:25:41;;;;;;;9.23;7.20;;;5.90;99.90;;;5.62;72.77;94904.25;5039797;28;20460;-58
2023/03/03 05:28:09;;;;;;;14.50;8.80;;;5.90;99.90;;;5.63;72.33;94903.31;5034900;28;20500;-56
2023/03/03 05:30:36;;;;;;;11.13;7.30;;;5.90;99.90;;;5.64;72.77;94897.97;5044014;28;21479;-57
2023/03/03 05:33:04;;;;;;;12.03;8.50;;;5.90;99.90;;;5.64;72.44;94905.81;5034860;28;20529;-56
2023/03/03 05:35:32;;;;;;;14.00;8.83;;;5.90;99.90;;;5.67;72.57;94902.97;5027663;28;20483;-57
2023/03/03 05:38:00;;;;;;;12.93;8.13;;;5.90;99.90;;;5.70;72.97;94907.13;5036930;28;20476;-58
2023/03/03 05:40:28;;;;;;;12.80;8.00;;;5.90;99.90;;;5.70;72.55;94909.75;5035069;28;20487;-57
2023/03/03 05:42:55;;;;;;;12.30;8.37;;;5.90;99.90;;;5.72;72.76;94910.50;5039637;28;20538;-57
2023/03/03 05:45:23;;;;;;;12.23;8.20;;;6.00;99.90;;;5.73;73.36;94907.78;5033600;28;20454;-58
2023/03/03 05:47:50;;;;;;;13.23;9.23;;;6.00;99.90;;;5.75;73.31;94905.06;5038220;28;20821;-57
2023/03/03 05:50:18;;;;;;;15.67;11.77;;;6.00;99.90;;;5.80;72.76;94912.56;5030349;28;20456;-57
2023/03/03 05:52:48;;;;;;;13.90;9.93;;;6.00;99.90;;;5.84;72.81;94919.19;5038516;28;20471;-57
2023/03/03 05:55:15;;;;;;;14.50;9.57;;;6.00;99.90;;;5.87;73.26;94913.75;5036401;28;20449;-57
2023/03/03 05:57:43;;;;;;;15.50;11.37;;;6.10;99.90;;;5.91;72.71;94912.59;5038280;28;21024;-56
2023/03/03 06:00:12;;;;;;;12.70;8.47;;;6.10;99.90;;;5.92;72.95;94916.91;5034305;28;20463;-57
2023/03/03 06:02:39;;;;;;;11.60;8.70;;;6.20;99.90;;;5.93;72.19;94913.31;5039963;28;20475;-57
2023/03/03 06:05:07;;;;;;;14.63;8.90;;;6.20;99.90;;;5.92;72.67;94909.88;5036971;28;21094;-57
2023/03/03 06:07:35;;;;;;;11.07;8.20;;;6.20;99.90;;;5.92;72.33;94914.28;5049222;28;20501;-61
2023/03/03 06:10:04;;;;;;;9.80;7.57;;;6.20;99.90;;;5.90;71.81;94916.16;5043504;28;20460;-58
2023/03/03 06:12:31;;;;;;;9.50;6.70;;;6.20;99.90;;;5.87;72.59;94926.81;5038351;28;20472;-55
2023/03/03 06:14:58;;;;;;;12.17;8.17;;;6.10;99.90;;;5.83;72.52;94917.56;5039853;28;20491;-58
2023/03/03 06:17:26;;;;;;;14.23;8.33;;;6.10;99.90;;;5.81;71.95;94924.63;5039518;28;20472;-61
2023/03/03 06:19:53;;;;;;;11.57;7.60;;;6.10;99.90;;;5.79;72.12;94921.31;5047209;28;20467;-57
2023/03/03 06:22:20;;;;;;;12.80;8.60;;;6.00;99.90;;;5.75;72.26;94921.53;5036179;28;20480;-57
2023/03/03 06:24:47;;;;;;;13.53;8.83;;;6.00;99.90;;;5.78;72.38;94924.84;5041207;28;20492;-58
2023/03/03 06:27:16;;;;;;;13.03;8.87;;;6.00;99.90;;;5.77;72.56;94929.25;5044641;28;20531;-58
2023/03/03 06:29:44;;;;;;;11.13;8.03;;;6.00;99.90;;;5.80;72.63;94923.00;5041912;28;20568;-57
2023/03/03 06:32:11;;;;;;;12.37;8.20;;;6.00;99.90;;;5.81;72.31;94922.88;5040959;28;20477;-57
2023/03/03 06:34:39;;;;;;;16.53;8.47;;;6.10;99.90;;;5.82;72.44;94921.09;5043424;28;20457;-58
2023/03/03 06:37:06;;;;;;;17.50;9.53;;;6.10;99.90;;;5.84;72.69;94922.66;5039580;28;21331;-58
2023/03/03 06:39:34;;;;;;;16.80;9.73;;;6.10;99.90;;;5.89;72.74;94927.56;5039995;28;20444;-58
2023/03/03 06:42:03;;;;;;;11.60;8.83;;;6.10;99.90;;;5.96;73.52;94933.97;5041110;28;20503;-57
2023/03/03 06:44:32;;;;;;;19.13;9.63;;;6.20;99.90;;;6.02;72.64;94930.97;5044324;28;20467;-57
2023/03/03 06:46:59;;;;;;;14.57;9.10;;;6.20;99.90;;;6.06;72.69;94924.59;5032469;28;20496;-58
2023/03/03 06:49:26;;;;;;;12.00;8.00;;;6.30;99.90;;;6.10;72.63;94936.47;5039283;28;20525;-57
2023/03/03 06:51:54;;;;;;;11.37;8.83;;;6.30;99.90;;;6.13;72.29;94930.19;5040817;28;20533;-58
2023/03/03 06:54:24;;;;;;;18.33;10.77;;;6.40;99.90;;;6.16;71.93;94936.97;5039718;28;20471;-60
2023/03/03 06:56:58;;;;;;;13.97;8.33;;;6.40;99.90;;;6.18;72.39;94935.94;5048589;28;20495;-58
2023/03/03 06:59:26;;;;;;;17.90;10.53;;;6.40;99.90;;;6.22;72.38;94936.53;5034385;28;20466;-58
2023/03/03 07:01:55;;;;;;;12.67;8.40;;;6.40;99.90;;;6.30;72.53;94930.75;5039186;28;20499;-57
2023/03/03 07:04:29;;;;;;;12.93;8.83;;;6.50;99.90;;;6.34;72.14;94930.41;5040585;28;20463;-55
2023/03/03 07:06:57;;;;;;;14.30;8.37;;;6.50;99.90;;;6.39;71.78;94943.97;5037254;28;20488;-58
2023/03/03 07:09:25;;;;;;;12.77;8.30;;;6.60;99.90;;;6.44;72.12;94934.03;5042825;28;20866;-56
2023/03/03 07:11:53;;;;;;;12.20;8.80;;;6.60;99.90;;;6.48;72.67;94929.41;5039998;28;20606;-58
2023/03/03 07:14:20;;;;;;;13.20;8.20;;;6.70;99.90;;;6.51;72.29;94936.19;5038336;28;20452;-58
2023/03/03 07:16:51;;;;;;;12.30;8.30;;;6.70;99.90;;;6.54;72.17;94941.19;5039289;28;21573;-58
2023/03/03 07:19:21;;;;;;;10.40;8.00;;;6.70;99.90;;;6.58;71.47;94929.53;5034444;28;20481;-56
2023/03/03 07:21:48;;;;;;;11.43;8.70;;;6.80;99.90;;;6.61;71.82;94934.53;5040954;28;20465;-57
2023/03/03 07:24:26;;;;;;;12.47;8.77;;;6.80;99.90;;;6.61;71.25;94934.53;5032885;28;20461;-57
2023/03/03 07:26:54;;;;;;;13.90;8.77;;;6.80;99.90;;;6.60;71.87;94938.94;5032525;28;21076;-56
2023/03/03 07:29:25;;;;;;;11.53;7.90;;;6.80;99.90;;;6.60;71.52;94938.09;5034775;28;20537;-57
2023/03/03 07:31:52;;;;;;;14.10;9.97;;;6.80;99.90;;;6.59;71.93;94931.22;5033691;28;20503;-56
2023/03/03 07:34:23;;;;;;;14.30;9.93;;;6.80;99.90;;;6.61;72.16;94926.69;5035863;28;20508;-56
2023/03/03 07:36:50;;;;;;;9.70;7.90;;;6.80;99.90;;;6.64;72.20;94926.47;5043948;28;20487;-58
2023/03/03 07:39:35;;;;;;;10.10;7.43;;;6.90;99.90;;;6.66;71.76;94927.19;5037851;28;20486;-57
2023/03/03 07:42:26;;;;;;;16.97;9.37;;;6.90;99.90;;;6.69;71.87;94928.75;5037628;28;20489;-58
2023/03/03 07:44:55;;;;;;;10.97;7.87;;;6.90;99.90;;;6.70;71.62;94931.25;5035065;28;20506;-57
2023/03/03 07:47:24;;;;;;;12.60;8.27;;;6.90;99.90;;;6.73;71.25;94931.00;5042048;28;20549;-58
2023/03/03 07:49:54;;;;;;;11.20;8.30;;;6.90;99.90;;;6.74;71.64;94927.47;5037469;28;20456;-58
2023/03/03 07:52:31;;;;;;;12.47;9.10;;;6.90;99.90;;;6.79;72.00;94930.56;5043349;28;20475;-57
2023/03/03 07:55:00;;;;;;;12.57;8.70;;;7.00;99.90;;;6.80;71.33;94926.16;5035570;28;20459;-56
2023/03/03 07:57:30;;;;;;;12.43;7.90;;;7.00;99.90;;;6.79;71.68;94922.72;5035338;28;20499;-59
2023/03/03 08:00:21;;;;;;;15.37;8.40;;;7.00;99.90;;;6.79;71.64;94927.13;5022879;28;20522;-58
2023/03/03 08:02:51;;;;;;;13.80;9.30;;;7.00;99.90;;;6.80;70.90;94929.59;5034059;28;20480;-57
2023/03/03 08:05:31;;;;;;;13.40;10.23;;;7.00;99.90;;;6.81;71.68;94923.41;5035427;28;21080;-57
2023/03/03 08:08:20;;;;;;;12.40;9.20;;;7.00;99.90;;;6.84;70.67;94919.75;5030964;28;20506;-59
2023/03/03 08:10:48;;;;;;;15.33;9.87;;;7.00;99.90;;;6.87;71.20;94923.91;5034302;28;20778;-57
2023/03/03 08:13:18;;;;;;;13.50;10.10;;;7.00;99.90;;;6.87;71.14;94921.31;5028962;28;20484;-57
2023/03/03 08:15:46;;;;;;;13.77;10.17;;;7.00;99.90;;;6.88;71.33;94920.34;5027700;28;20472;-57
2023/03/03 08:18:23;;;;;;;14.27;10.50;;;7.10;99.90;;;6.92;71.19;94921.78;5031870;28;20463;-56
2023/03/03 08:20:54;;;;;;;17.10;10.40;;;7.10;99.90;;;6.96;71.39;94918.00;5029376;28;20472;-57
2023/03/03 08:23:22;;;;;;;16.20;11.00;;;7.20;99.90;;;7.00;71.55;94908.94;5030172;28;20452;-58
2023/03/03 08:25:50;;;;;;;16.73;10.60;;;7.20;99.90;;;7.04;71.36;94915.63;5028822;28;21246;-56
2023/03/03 08:28:17;;;;;;;33.47;18.23;;;7.20;99.90;;;7.09;72.15;94915.28;5030030;28;20500;-58
2023/03/03 08:30:45;;;;;;;32.77;14.30;;;7.20;99.90;;;7.16;72.29;94914.69;5032271;28;20901;-58
2023/03/03 08:33:12;;;;;;;22.80;14.20;;;7.30;99.90;;;7.24;71.81;94913.28;5027772;28;20488;-58
2023/03/03 08:35:40;;;;;;;20.43;12.70;;;7.40;99.90;;;7.29;71.23;94908.50;5036923;28;20449;-58
2023/03/03 08:38:09;;;;;;;20.17;11.33;;;7.40;99.90;;;7.28;70.96;94904.22;5030047;28;20500;-58
2023/03/03 08:40:37;;;;;;;16.20;10.73;;;7.50;99.90;;;7.31;70.68;94906.59;5025320;28;20537;-58
2023/03/03 08:43:04;;;;;;;19.03;11.53;;;7.50;99.90;;;7.33;70.39;94912.56;5025051;28;20980;-59
2023/03/03 08:45:31;;;;;;;13.73;10.87;;;7.50;99.90;;;7.35;70.43;94910.66;5040076;28;20474;-59
2023/03/03 08:48:00;;;;;;;16.00;10.83;;;7.50;99.90;;;7.36;70.12;94910.53;5029060;28;20518;-59
2023/03/03 08:50:27;;;;;;;16.27;10.37;;;7.50;99.90;;;7.39;70.22;94904.22;5025066;28;20916;-57
2023/03/03 08:52:55;;;;;;;17.87;10.93;;;7.60;99.90;;;7.41;70.10;94912.78;5032856;28;21008;-58
2023/03/03 08:55:23;;;;;;;17.27;11.10;;;7.60;99.90;;;7.42;70.28;94911.84;5025648;28;20543;-59
2023/03/03 08:57:50;;;;;;;13.00;8.87;;;7.60;99.90;;;7.39;69.55;94917.31;5033644;28;20514;-58
2023/03/03 09:00:19;;;;;;;20.13;10.47;;;7.60;99.90;;;7.34;69.27;94911.59;5036791;28;20463;-58
2023/03/03 09:02:46;;;;;;;15.60;10.37;;;7.60;99.90;;;7.27;69.99;94910.41;5036207;28;20508;-58
2023/03/03 09:05:13;;;;;;;21.53;12.50;;;7.50;99.90;;;7.24;69.47;94908.03;5039689;28;20466;-58
2023/03/03 09:07:41;;;;;;;16.00;10.47;;;7.50;99.90;;;7.23;70.13;94903.75;5034711;28;20492;-58
2023/03/03 09:10:10;;;;;;;13.17;9.40;;;7.40;99.90;;;7.26;70.69;94904.34;5034318;28;20477;-58
2023/03/03 09:12:42;;;;;;;13.50;9.37;;;7.50;99.90;;;7.29;70.57;94903.28;5032772;28;20477;-58
2023/03/03 09:15:19;;;;;;;15.23;10.00;;;7.50;99.90;;;7.32;69.40;94903.03;5038023;28;20452;-57
2023/03/03 09:17:46;;;;;;;16.60;11.37;;;7.50;99.90;;;7.32;69.74;94909.09;5036468;28;20488;-59
2023/03/03 09:20:38;;;;;;;16.03;10.60;;;7.50;99.90;;;7.32;70.01;94906.47;5034736;28;20988;-57
2023/03/03 09:23:34;;;;;;;20.80;12.57;;;7.50;99.90;;;7.34;70.36;94904.59;5026227;28;20471;-58
2023/03/03 09:26:39;;;;;;;11.93;9.50;;;7.50;99.90;;;7.41;70.30;94897.09;5033528;28;20499;-60
2023/03/03 09:29:26;;;;;;;16.33;10.10;;;7.60;99.90;;;7.46;69.86;94909.81;5030712;28;21066;-59
2023/03/03 09:31:54;;;;;;;12.33;9.07;;;7.60;99.90;;;7.49;69.92;94902.53;5036815;28;20484;-59
2023/03/03 09:34:24;;;;;;;13.47;9.00;;;7.70;99.90;;;7.57;70.21;94906.34;5031840;28;20507;-59
2023/03/03 09:36:52;;;;;;;12.43;8.77;;;7.70;99.90;;;7.62;69.90;94905.06;5035747;28;20568;-59
2023/03/03 09:39:21;;;;;;;14.97;9.03;;;7.80;99.90;;;7.66;69.44;94906.44;5038565;28;20997;-59
2023/03/03 09:42:41;;;;;;;13.07;9.10;;;7.80;99.90;;;7.68;69.81;94908.94;5038885;28;20995;-58
2023/03/03 09:45:47;;;;;;;15.00;10.57;;;7.90;99.90;;;7.71;69.34;94903.47;5030878;28;20510;-57
2023/03/03 09:48:51;;;;;;;12.00;8.90;;;7.90;99.90;;;7.71;69.21;94908.72;5035001;28;20498;-57
2023/03/03 09:51:40;;;;;;;9.87;7.80;;;7.90;99.90;;;7.71;69.20;94912.19;5038177;28;20561;-58
2023/03/03 09:54:17;;;;;;;12.50;9.00;;;7.90;99.90;;;7.68;68.38;94908.94;5040235;28;20894;-58
2023/03/03 09:56:47;;;;;;;13.23;9.10;;;7.90;99.90;;;7.64;68.80;94902.31;5040640;28;20483;-58
2023/03/03 09:59:28;;;;;;;14.30;9.70;;;7.80;99.90;;;7.63;68.60;94911.94;5040866;28;20456;-58
2023/03/03 10:02:38;;;;;;;13.30;9.23;;;7.80;99.90;;;7.63;69.09;94903.25;5044295;28;20471;-58
2023/03/03 10:05:18;;;;;;;16.03;10.73;;;7.80;99.90;;;7.63;68.59;94901.47;5038895;28;20466;-58
2023/03/03 10:07:55;;;;;;;12.40;8.70;;;7.80;99.90;;;7.70;69.03;94904.44;5039440;28;20472;-57
2023/03/03 10:10:53;;;;;;;13.47;8.93;;;7.80;99.90;;;7.80;69.39;94901.91;5042510;28;20968;-59
2023/03/03 10:13:36;;;;;;;16.30;9.00;;;7.90;99.90;;;7.83;67.88;94899.88;5010023;28;20467;-58
2023/03/03 10:16:38;;;;;;;12.60;10.23;;;8.00;99.90;;;7.85;68.19;94903.22;5038198;28;20435;-58
2023/03/03 10:19:13;;;;;;;11.37;8.67;;;8.00;99.90;;;7.86;67.85;94899.63;5031971;28;20970;-58
2023/03/03 10:21:42;;;;;;;15.23;9.57;;;8.00;99.90;;;7.87;67.47;94901.31;5044414;28;21018;-58
2023/03/03 10:24:19;;;;;;;13.63;10.43;;;8.00;99.90;;;7.89;68.10;94896.78;5042241;28;20447;-58
2023/03/03 10:26:56;;;;;;;14.77;10.00;;;8.10;99.90;;;7.92;68.66;94884.38;5042679;28;20467;-58
2023/03/03 10:29:35;;;;;;;16.20;10.57;;;8.10;99.90;;;7.99;68.66;94886.38;5035079;28;20483;-58
2023/03/03 10:32:37;;;;;;;11.80;9.13;;;8.10;99.90;;;8.05;68.11;94888.50;5034506;28;20472;-57
2023/03/03 10:35:48;;;;;;;11.30;9.37;;;8.20;99.90;;;8.12;68.35;94886.25;5039904;28;20455;-58
2023/03/03 10:38:27;;;;;;;12.40;9.80;;;8.30;99.90;;;8.17;68.70;94884.06;5031734;28;20531;-59
2023/03/03 10:40:58;;;;;;;17.47;10.80;;;8.30;99.90;;;8.23;68.27;94880.94;5033763;28;20466;-59
2023/03/03 10:43:37;;;;;;;14.27;9.83;;;8.40;99.90;;;8.31;68.54;94879.50;5038022;28;20456;-59